sensor_id;sensor_type;location;lat;lon;timestamp;temperature;humidity
9057;DHT22;4563;54.756;9.400;2023-12-22T00:02:02;7.40;75.20
9057;DHT22;4563;54.756;9.400;2023-12-22T00:04:29;7.40;75.40
9057;DHT22;4563;54.756;9.400;2023-12-22T00:06:56;7.40;75.40
9057;DHT22;4563;54.756;9.400;2023-12-22T00:09:24;7.40;75.30
9057;DHT22;4563;54.756;9.400;2023-12-22T00:11:51;7.40;75.20
9057;DHT22;4563;54.756;9.400;2023-12-22T00:14:17;7.40;75.40
9057;DHT22;4563;54.756;9.400;2023-12-22T00:16:44;7.40;75.40
9057;DHT22;4563;54.756;9.400;2023-12-22T00:19:11;7.40;75.40
9057;DHT22;4563;54.756;9.400;2023-12-22T00:21:38;7.40;75.50
9057;DHT22;4563;54.756;9.400;2023-12-22T00:24:05;7.30;75.70
9057;DHT22;4563;54.756;9.400;2023-12-22T00:26:33;7.30;75.50
9057;DHT22;4563;54.756;9.400;2023-12-22T00:29:00;7.30;75.50
9057;DHT22;4563;54.756;9.400;2023-12-22T00:31:27;7.30;75.50
9057;DHT22;4563;54.756;9.400;2023-12-22T00:33:54;7.30;75.50
9057;DHT22;4563;54.756;9.400;2023-12-22T00:36:20;7.30;75.60
9057;DHT22;4563;54.756;9.400;2023-12-22T00:38:50;7.30;75.80
9057;DHT22;4563;54.756;9.400;2023-12-22T00:41:16;7.30;75.70
9057;DHT22;4563;54.756;9.400;2023-12-22T00:43:44;7.30;75.60
9057;DHT22;4563;54.756;9.400;2023-12-22T00:46:12;7.30;75.80
9057;DHT22;4563;54.756;9.400;2023-12-22T00:48:39;7.30;75.70
9057;DHT22;4563;54.756;9.400;2023-12-22T00:51:06;7.30;75.60
9057;DHT22;4563;54.756;9.400;2023-12-22T00:53:33;7.30;75.90
9057;DHT22;4563;54.756;9.400;2023-12-22T00:56:00;7.30;75.30
9057;DHT22;4563;54.756;9.400;2023-12-22T00:58:28;7.20;75.30
9057;DHT22;4563;54.756;9.400;2023-12-22T01:00:56;7.20;75.60
9057;DHT22;4563;54.756;9.400;2023-12-22T01:03:23;7.20;75.70
9057;DHT22;4563;54.756;9.400;2023-12-22T01:05:50;7.20;75.50
9057;DHT22;4563;54.756;9.400;2023-12-22T01:08:17;7.20;75.10
9057;DHT22;4563;54.756;9.400;2023-12-22T01:10:43;7.20;75.30
9057;DHT22;4563;54.756;9.400;2023-12-22T01:13:10;7.30;75.30
9057;DHT22;4563;54.756;9.400;2023-12-22T01:15:37;7.20;75.20
9057;DHT22;4563;54.756;9.400;2023-12-22T01:18:05;7.20;75.30
9057;DHT22;4563;54.756;9.400;2023-12-22T01:20:32;7.20;75.30
9057;DHT22;4563;54.756;9.400;2023-12-22T01:22:59;7.20;75.30
9057;DHT22;4563;54.756;9.400;2023-12-22T01:25:26;7.20;75.00
9057;DHT22;4563;54.756;9.400;2023-12-22T01:27:52;7.30;75.20
9057;DHT22;4563;54.756;9.400;2023-12-22T01:30:19;7.20;75.10
9057;DHT22;4563;54.756;9.400;2023-12-22T01:32:46;7.20;75.40
9057;DHT22;4563;54.756;9.400;2023-12-22T01:35:14;7.20;75.20
9057;DHT22;4563;54.756;9.400;2023-12-22T01:37:41;7.20;75.20
9057;DHT22;4563;54.756;9.400;2023-12-22T01:40:08;7.20;75.30
9057;DHT22;4563;54.756;9.400;2023-12-22T01:42:35;7.20;75.30
9057;DHT22;4563;54.756;9.400;2023-12-22T01:45:02;7.20;75.40
9057;DHT22;4563;54.756;9.400;2023-12-22T01:47:29;7.20;75.30
9057;DHT22;4563;54.756;9.400;2023-12-22T01:49:56;7.20;75.30
9057;DHT22;4563;54.756;9.400;2023-12-22T01:52:25;7.20;75.50
9057;DHT22;4563;54.756;9.400;2023-12-22T01:54:52;7.20;75.60
9057;DHT22;4563;54.756;9.400;2023-12-22T01:57:20;7.20;75.50
9057;DHT22;4563;54.756;9.400;2023-12-22T01:59:48;7.20;75.40
9057;DHT22;4563;54.756;9.400;2023-12-22T02:02:22;7.20;75.40
9057;DHT22;4563;54.756;9.400;2023-12-22T02:04:49;7.20;75.80
9057;DHT22;4563;54.756;9.400;2023-12-22T02:07:16;7.20;75.60
9057;DHT22;4563;54.756;9.400;2023-12-22T02:09:44;7.20;75.50
9057;DHT22;4563;54.756;9.400;2023-12-22T02:12:11;7.20;76.20
9057;DHT22;4563;54.756;9.400;2023-12-22T02:14:38;7.20;75.60
9057;DHT22;4563;54.756;9.400;2023-12-22T02:17:10;7.20;75.60
9057;DHT22;4563;54.756;9.400;2023-12-22T02:19:42;7.20;75.60
9057;DHT22;4563;54.756;9.400;2023-12-22T02:22:10;7.10;75.80
9057;DHT22;4563;54.756;9.400;2023-12-22T02:24:39;7.20;75.60
9057;DHT22;4563;54.756;9.400;2023-12-22T02:27:14;7.20;76.30
9057;DHT22;4563;54.756;9.400;2023-12-22T02:29:45;7.10;76.40
9057;DHT22;4563;54.756;9.400;2023-12-22T02:32:17;7.10;76.40
9057;DHT22;4563;54.756;9.400;2023-12-22T02:34:49;7.10;76.10
9057;DHT22;4563;54.756;9.400;2023-12-22T02:37:18;7.10;76.00
9057;DHT22;4563;54.756;9.400;2023-12-22T02:39:47;7.00;75.80
9057;DHT22;4563;54.756;9.400;2023-12-22T02:42:15;7.00;76.00
9057;DHT22;4563;54.756;9.400;2023-12-22T02:44:42;6.90;76.00
9057;DHT22;4563;54.756;9.400;2023-12-22T02:47:08;6.90;76.00
9057;DHT22;4563;54.756;9.400;2023-12-22T02:49:35;6.80;76.10
9057;DHT22;4563;54.756;9.400;2023-12-22T02:52:02;6.80;76.10
9057;DHT22;4563;54.756;9.400;2023-12-22T02:54:29;6.80;76.30
9057;DHT22;4563;54.756;9.400;2023-12-22T02:56:58;6.70;76.20
9057;DHT22;4563;54.756;9.400;2023-12-22T02:59:25;6.70;76.20
9057;DHT22;4563;54.756;9.400;2023-12-22T03:01:54;6.60;76.10
9057;DHT22;4563;54.756;9.400;2023-12-22T03:04:20;6.60;76.50
9057;DHT22;4563;54.756;9.400;2023-12-22T03:06:47;6.60;76.40
9057;DHT22;4563;54.756;9.400;2023-12-22T03:09:14;6.50;76.50
9057;DHT22;4563;54.756;9.400;2023-12-22T03:11:41;6.50;76.70
9057;DHT22;4563;54.756;9.400;2023-12-22T03:14:09;6.50;76.70
9057;DHT22;4563;54.756;9.400;2023-12-22T03:16:36;6.50;76.90
9057;DHT22;4563;54.756;9.400;2023-12-22T03:19:03;6.50;76.70
9057;DHT22;4563;54.756;9.400;2023-12-22T03:21:30;6.40;76.60
9057;DHT22;4563;54.756;9.400;2023-12-22T03:23:56;6.40;76.60
9057;DHT22;4563;54.756;9.400;2023-12-22T03:26:23;6.40;76.80
9057;DHT22;4563;54.756;9.400;2023-12-22T03:28:52;6.40;76.70
9057;DHT22;4563;54.756;9.400;2023-12-22T03:31:20;6.40;76.60
9057;DHT22;4563;54.756;9.400;2023-12-22T03:33:47;6.40;76.80
9057;DHT22;4563;54.756;9.400;2023-12-22T03:36:14;6.40;76.90
9057;DHT22;4563;54.756;9.400;2023-12-22T03:38:41;6.40;76.70
9057;DHT22;4563;54.756;9.400;2023-12-22T03:41:08;6.50;76.80
9057;DHT22;4563;54.756;9.400;2023-12-22T03:43:34;6.50;76.70
9057;DHT22;4563;54.756;9.400;2023-12-22T03:46:01;6.50;76.60
9057;DHT22;4563;54.756;9.400;2023-12-22T03:48:29;6.50;76.60
9057;DHT22;4563;54.756;9.400;2023-12-22T03:50:56;6.50;76.70
9057;DHT22;4563;54.756;9.400;2023-12-22T03:53:23;6.50;76.60
9057;DHT22;4563;54.756;9.400;2023-12-22T03:55:50;6.50;76.60
9057;DHT22;4563;54.756;9.400;2023-12-22T03:58:17;6.50;76.60
9057;DHT22;4563;54.756;9.400;2023-12-22T04:00:43;6.50;76.60
9057;DHT22;4563;54.756;9.400;2023-12-22T04:03:10;6.50;76.50
9057;DHT22;4563;54.756;9.400;2023-12-22T04:05:38;6.50;76.60
9057;DHT22;4563;54.756;9.400;2023-12-22T04:08:05;6.40;76.50
9057;DHT22;4563;54.756;9.400;2023-12-22T04:10:32;6.40;76.40
9057;DHT22;4563;54.756;9.400;2023-12-22T04:12:59;6.40;76.60
9057;DHT22;4563;54.756;9.400;2023-12-22T04:15:26;6.40;76.40
9057;DHT22;4563;54.756;9.400;2023-12-22T04:17:52;6.40;76.60
9057;DHT22;4563;54.756;9.400;2023-12-22T04:20:19;6.40;76.60
9057;DHT22;4563;54.756;9.400;2023-12-22T04:22:48;6.40;76.50
9057;DHT22;4563;54.756;9.400;2023-12-22T04:25:13;6.40;76.30
9057;DHT22;4563;54.756;9.400;2023-12-22T04:27:40;6.40;76.60
9057;DHT22;4563;54.756;9.400;2023-12-22T04:30:08;6.40;76.70
9057;DHT22;4563;54.756;9.400;2023-12-22T04:32:35;6.30;76.50
9057;DHT22;4563;54.756;9.400;2023-12-22T04:35:02;6.40;76.80
9057;DHT22;4563;54.756;9.400;2023-12-22T04:37:29;6.40;74.30
9057;DHT22;4563;54.756;9.400;2023-12-22T04:39:57;6.40;76.10
9057;DHT22;4563;54.756;9.400;2023-12-22T04:42:24;6.40;76.60
9057;DHT22;4563;54.756;9.400;2023-12-22T04:44:51;6.40;76.40
9057;DHT22;4563;54.756;9.400;2023-12-22T04:47:18;6.40;76.60
9057;DHT22;4563;54.756;9.400;2023-12-22T04:49:46;6.40;76.60
9057;DHT22;4563;54.756;9.400;2023-12-22T04:52:13;6.40;76.70
9057;DHT22;4563;54.756;9.400;2023-12-22T04:54:40;6.40;76.70
9057;DHT22;4563;54.756;9.400;2023-12-22T04:57:08;6.40;76.70
9057;DHT22;4563;54.756;9.400;2023-12-22T04:59:34;6.40;76.60
9057;DHT22;4563;54.756;9.400;2023-12-22T05:02:01;6.50;76.50
9057;DHT22;4563;54.756;9.400;2023-12-22T05:04:28;6.40;76.40
9057;DHT22;4563;54.756;9.400;2023-12-22T05:06:55;6.50;76.50
9057;DHT22;4563;54.756;9.400;2023-12-22T05:09:23;6.50;76.30
9057;DHT22;4563;54.756;9.400;2023-12-22T05:11:50;6.50;76.20
9057;DHT22;4563;54.756;9.400;2023-12-22T05:14:18;6.50;76.10
9057;DHT22;4563;54.756;9.400;2023-12-22T05:16:45;6.50;76.10
9057;DHT22;4563;54.756;9.400;2023-12-22T05:19:12;6.50;76.10
9057;DHT22;4563;54.756;9.400;2023-12-22T05:21:39;6.50;76.10
9057;DHT22;4563;54.756;9.400;2023-12-22T05:24:05;6.50;76.10
9057;DHT22;4563;54.756;9.400;2023-12-22T05:26:32;6.50;76.10
9057;DHT22;4563;54.756;9.400;2023-12-22T05:28:59;6.50;76.00
9057;DHT22;4563;54.756;9.400;2023-12-22T05:31:27;6.40;76.00
9057;DHT22;4563;54.756;9.400;2023-12-22T05:33:54;6.50;76.30
9057;DHT22;4563;54.756;9.400;2023-12-22T05:36:21;6.40;76.20
9057;DHT22;4563;54.756;9.400;2023-12-22T05:38:48;6.40;76.20
9057;DHT22;4563;54.756;9.400;2023-12-22T05:41:14;6.40;76.00
9057;DHT22;4563;54.756;9.400;2023-12-22T05:43:42;6.40;75.90
9057;DHT22;4563;54.756;9.400;2023-12-22T05:46:09;6.40;76.00
9057;DHT22;4563;54.756;9.400;2023-12-22T05:48:37;6.40;76.10
9057;DHT22;4563;54.756;9.400;2023-12-22T05:51:04;6.40;76.20
9057;DHT22;4563;54.756;9.400;2023-12-22T05:53:33;6.40;76.00
9057;DHT22;4563;54.756;9.400;2023-12-22T05:56:00;6.40;76.10
9057;DHT22;4563;54.756;9.400;2023-12-22T05:58:26;6.40;76.70
9057;DHT22;4563;54.756;9.400;2023-12-22T06:00:53;6.30;76.00
9057;DHT22;4563;54.756;9.400;2023-12-22T06:03:20;6.40;75.90
9057;DHT22;4563;54.756;9.400;2023-12-22T06:05:48;6.40;75.90
9057;DHT22;4563;54.756;9.400;2023-12-22T06:08:15;6.40;76.00
9057;DHT22;4563;54.756;9.400;2023-12-22T06:10:42;6.30;76.00
9057;DHT22;4563;54.756;9.400;2023-12-22T06:13:10;6.30;76.00
9057;DHT22;4563;54.756;9.400;2023-12-22T06:15:36;6.30;76.20
9057;DHT22;4563;54.756;9.400;2023-12-22T06:18:04;6.30;75.90
9057;DHT22;4563;54.756;9.400;2023-12-22T06:20:31;6.30;76.50
9057;DHT22;4563;54.756;9.400;2023-12-22T06:22:59;6.30;76.50
9057;DHT22;4563;54.756;9.400;2023-12-22T06:25:26;6.20;76.40
9057;DHT22;4563;54.756;9.400;2023-12-22T06:27:53;6.20;76.40
9057;DHT22;4563;54.756;9.400;2023-12-22T06:30:19;6.20;76.60
9057;DHT22;4563;54.756;9.400;2023-12-22T06:32:46;6.20;76.70
9057;DHT22;4563;54.756;9.400;2023-12-22T06:35:13;6.20;76.60
9057;DHT22;4563;54.756;9.400;2023-12-22T06:37:40;6.10;76.60
9057;DHT22;4563;54.756;9.400;2023-12-22T06:40:10;6.10;76.70
9057;DHT22;4563;54.756;9.400;2023-12-22T06:42:37;6.10;76.70
9057;DHT22;4563;54.756;9.400;2023-12-22T06:45:04;6.10;76.80
9057;DHT22;4563;54.756;9.400;2023-12-22T06:47:31;6.10;76.80
9057;DHT22;4563;54.756;9.400;2023-12-22T06:49:58;6.10;76.90
9057;DHT22;4563;54.756;9.400;2023-12-22T06:52:24;6.00;76.80
9057;DHT22;4563;54.756;9.400;2023-12-22T06:54:51;6.00;76.80
9057;DHT22;4563;54.756;9.400;2023-12-22T06:57:20;6.00;77.00
9057;DHT22;4563;54.756;9.400;2023-12-22T06:59:48;6.00;77.10
9057;DHT22;4563;54.756;9.400;2023-12-22T07:02:15;6.00;76.90
9057;DHT22;4563;54.756;9.400;2023-12-22T07:07:32;6.00;77.10
9057;DHT22;4563;54.756;9.400;2023-12-22T07:09:59;6.00;77.20
9057;DHT22;4563;54.756;9.400;2023-12-22T07:12:27;6.00;77.10
9057;DHT22;4563;54.756;9.400;2023-12-22T07:14:54;6.00;77.10
9057;DHT22;4563;54.756;9.400;2023-12-22T07:17:21;5.90;78.00
9057;DHT22;4563;54.756;9.400;2023-12-22T07:19:48;5.90;77.10
9057;DHT22;4563;54.756;9.400;2023-12-22T07:22:17;5.90;77.10
9057;DHT22;4563;54.756;9.400;2023-12-22T07:24:44;5.90;77.20
9057;DHT22;4563;54.756;9.400;2023-12-22T07:27:11;5.90;77.10
9057;DHT22;4563;54.756;9.400;2023-12-22T07:29:39;5.90;77.20
9057;DHT22;4563;54.756;9.400;2023-12-22T07:32:06;5.90;77.10
9057;DHT22;4563;54.756;9.400;2023-12-22T07:34:33;5.90;77.30
9057;DHT22;4563;54.756;9.400;2023-12-22T07:37:00;5.80;77.20
9057;DHT22;4563;54.756;9.400;2023-12-22T07:39:27;5.90;77.40
9057;DHT22;4563;54.756;9.400;2023-12-22T07:41:53;5.80;77.40
9057;DHT22;4563;54.756;9.400;2023-12-22T07:44:20;5.80;77.30
9057;DHT22;4563;54.756;9.400;2023-12-22T07:46:57;5.80;77.50
9057;DHT22;4563;54.756;9.400;2023-12-22T07:49:25;5.90;77.60
9057;DHT22;4563;54.756;9.400;2023-12-22T07:51:52;5.80;77.40
9057;DHT22;4563;54.756;9.400;2023-12-22T07:54:19;5.80;77.30
9057;DHT22;4563;54.756;9.400;2023-12-22T07:56:46;5.80;77.40
9057;DHT22;4563;54.756;9.400;2023-12-22T07:59:13;5.80;77.30
9057;DHT22;4563;54.756;9.400;2023-12-22T08:01:40;5.80;77.40
9057;DHT22;4563;54.756;9.400;2023-12-22T08:04:08;5.80;77.60
9057;DHT22;4563;54.756;9.400;2023-12-22T08:06:35;5.80;77.50
9057;DHT22;4563;54.756;9.400;2023-12-22T08:09:02;5.80;77.50
9057;DHT22;4563;54.756;9.400;2023-12-22T08:11:29;5.80;77.40
9057;DHT22;4563;54.756;9.400;2023-12-22T08:13:56;5.80;77.40
9057;DHT22;4563;54.756;9.400;2023-12-22T08:16:23;5.80;77.40
9057;DHT22;4563;54.756;9.400;2023-12-22T08:18:50;5.80;77.50
9057;DHT22;4563;54.756;9.400;2023-12-22T08:21:19;5.80;77.60
9057;DHT22;4563;54.756;9.400;2023-12-22T08:23:47;5.80;77.60
9057;DHT22;4563;54.756;9.400;2023-12-22T08:26:13;5.80;77.60
9057;DHT22;4563;54.756;9.400;2023-12-22T08:28:42;5.80;77.50
9057;DHT22;4563;54.756;9.400;2023-12-22T08:31:09;5.80;77.50
9057;DHT22;4563;54.756;9.400;2023-12-22T08:33:37;5.80;77.50
9057;DHT22;4563;54.756;9.400;2023-12-22T08:36:06;5.90;77.40
9057;DHT22;4563;54.756;9.400;2023-12-22T08:38:34;5.80;77.40
9057;DHT22;4563;54.756;9.400;2023-12-22T08:41:02;5.90;77.40
9057;DHT22;4563;54.756;9.400;2023-12-22T08:43:29;5.90;77.40
9057;DHT22;4563;54.756;9.400;2023-12-22T08:45:55;5.90;77.40
9057;DHT22;4563;54.756;9.400;2023-12-22T08:48:22;5.90;77.50
9057;DHT22;4563;54.756;9.400;2023-12-22T08:50:49;5.90;77.50
9057;DHT22;4563;54.756;9.400;2023-12-22T08:53:16;5.90;77.50
9057;DHT22;4563;54.756;9.400;2023-12-22T08:55:44;5.90;77.30
9057;DHT22;4563;54.756;9.400;2023-12-22T08:58:11;5.90;77.20
9057;DHT22;4563;54.756;9.400;2023-12-22T09:00:38;5.90;77.20
9057;DHT22;4563;54.756;9.400;2023-12-22T09:03:04;5.90;77.30
9057;DHT22;4563;54.756;9.400;2023-12-22T09:05:31;5.90;77.20
9057;DHT22;4563;54.756;9.400;2023-12-22T09:07:58;5.90;77.30
9057;DHT22;4563;54.756;9.400;2023-12-22T09:10:25;5.90;77.30
9057;DHT22;4563;54.756;9.400;2023-12-22T09:12:53;5.90;77.20
9057;DHT22;4563;54.756;9.400;2023-12-22T09:15:20;5.90;77.20
9057;DHT22;4563;54.756;9.400;2023-12-22T09:17:47;5.90;77.30
9057;DHT22;4563;54.756;9.400;2023-12-22T09:20:14;5.90;77.20
9057;DHT22;4563;54.756;9.400;2023-12-22T09:22:41;5.90;77.20
9057;DHT22;4563;54.756;9.400;2023-12-22T09:25:08;5.90;77.30
9057;DHT22;4563;54.756;9.400;2023-12-22T09:27:35;5.90;77.40
9057;DHT22;4563;54.756;9.400;2023-12-22T09:30:04;5.90;77.30
9057;DHT22;4563;54.756;9.400;2023-12-22T09:32:32;5.90;77.30
9057;DHT22;4563;54.756;9.400;2023-12-22T09:35:00;5.90;77.40
9057;DHT22;4563;54.756;9.400;2023-12-22T09:37:27;5.90;77.30
9057;DHT22;4563;54.756;9.400;2023-12-22T09:39:54;5.90;77.20
9057;DHT22;4563;54.756;9.400;2023-12-22T09:42:21;5.90;77.20
9057;DHT22;4563;54.756;9.400;2023-12-22T09:44:49;5.90;77.30
9057;DHT22;4563;54.756;9.400;2023-12-22T09:47:19;5.90;77.40
9057;DHT22;4563;54.756;9.400;2023-12-22T09:49:48;6.00;77.50
9057;DHT22;4563;54.756;9.400;2023-12-22T09:52:16;6.00;77.40
9057;DHT22;4563;54.756;9.400;2023-12-22T09:54:44;6.00;77.40
9057;DHT22;4563;54.756;9.400;2023-12-22T09:57:12;6.00;77.30
9057;DHT22;4563;54.756;9.400;2023-12-22T09:59:39;6.00;77.40
9057;DHT22;4563;54.756;9.400;2023-12-22T10:02:08;6.00;77.30
9057;DHT22;4563;54.756;9.400;2023-12-22T10:04:36;6.10;77.40
9057;DHT22;4563;54.756;9.400;2023-12-22T10:07:04;6.00;77.10
9057;DHT22;4563;54.756;9.400;2023-12-22T10:09:32;6.10;77.40
9057;DHT22;4563;54.756;9.400;2023-12-22T10:12:00;6.10;77.20
9057;DHT22;4563;54.756;9.400;2023-12-22T10:14:28;6.10;77.20
9057;DHT22;4563;54.756;9.400;2023-12-22T10:16:56;6.10;77.30
9057;DHT22;4563;54.756;9.400;2023-12-22T10:19:22;6.10;77.20
9057;DHT22;4563;54.756;9.400;2023-12-22T10:21:51;6.10;77.20
9057;DHT22;4563;54.756;9.400;2023-12-22T10:24:36;6.10;77.10
9057;DHT22;4563;54.756;9.400;2023-12-22T10:27:04;6.20;77.70
9057;DHT22;4563;54.756;9.400;2023-12-22T10:29:31;6.20;77.40
9057;DHT22;4563;54.756;9.400;2023-12-22T10:31:58;6.20;77.30
9057;DHT22;4563;54.756;9.400;2023-12-22T10:34:24;6.20;77.30
9057;DHT22;4563;54.756;9.400;2023-12-22T10:36:53;6.20;77.30
9057;DHT22;4563;54.756;9.400;2023-12-22T10:39:20;6.20;77.30
9057;DHT22;4563;54.756;9.400;2023-12-22T10:41:48;6.20;77.30
9057;DHT22;4563;54.756;9.400;2023-12-22T10:44:15;6.20;77.30
9057;DHT22;4563;54.756;9.400;2023-12-22T10:46:42;6.20;77.40
9057;DHT22;4563;54.756;9.400;2023-12-22T10:49:09;6.20;77.40
9057;DHT22;4563;54.756;9.400;2023-12-22T10:51:36;6.20;77.40
9057;DHT22;4563;54.756;9.400;2023-12-22T10:54:05;6.20;77.40
9057;DHT22;4563;54.756;9.400;2023-12-22T10:56:32;6.30;77.70
9057;DHT22;4563;54.756;9.400;2023-12-22T10:58:59;6.30;77.70
9057;DHT22;4563;54.756;9.400;2023-12-22T11:01:28;6.30;77.70
9057;DHT22;4563;54.756;9.400;2023-12-22T11:03:58;6.30;77.80
9057;DHT22;4563;54.756;9.400;2023-12-22T11:06:29;6.30;77.70
9057;DHT22;4563;54.756;9.400;2023-12-22T11:08:57;6.30;77.70
9057;DHT22;4563;54.756;9.400;2023-12-22T11:11:27;6.30;77.70
9057;DHT22;4563;54.756;9.400;2023-12-22T11:13:57;6.40;77.90
9057;DHT22;4563;54.756;9.400;2023-12-22T11:16:24;6.30;77.70
9057;DHT22;4563;54.756;9.400;2023-12-22T11:18:53;6.40;77.80
9057;DHT22;4563;54.756;9.400;2023-12-22T11:21:22;6.40;77.80
9057;DHT22;4563;54.756;9.400;2023-12-22T11:23:49;6.40;77.80
9057;DHT22;4563;54.756;9.400;2023-12-22T11:26:17;6.40;77.80
9057;DHT22;4563;54.756;9.400;2023-12-22T11:28:47;6.40;77.80
9057;DHT22;4563;54.756;9.400;2023-12-22T11:31:15;6.40;77.80
9057;DHT22;4563;54.756;9.400;2023-12-22T11:33:44;6.40;77.70
9057;DHT22;4563;54.756;9.400;2023-12-22T11:36:11;6.40;77.70
9057;DHT22;4563;54.756;9.400;2023-12-22T11:38:40;6.40;77.80
9057;DHT22;4563;54.756;9.400;2023-12-22T11:41:08;6.40;77.70
9057;DHT22;4563;54.756;9.400;2023-12-22T11:43:37;6.40;77.70
9057;DHT22;4563;54.756;9.400;2023-12-22T11:46:06;6.40;77.70
9057;DHT22;4563;54.756;9.400;2023-12-22T11:48:33;6.40;77.60
9057;DHT22;4563;54.756;9.400;2023-12-22T11:51:00;6.40;77.70
9057;DHT22;4563;54.756;9.400;2023-12-22T11:53:30;6.40;77.60
9057;DHT22;4563;54.756;9.400;2023-12-22T11:56:02;6.40;77.80
9057;DHT22;4563;54.756;9.400;2023-12-22T11:58:40;6.40;78.00
9057;DHT22;4563;54.756;9.400;2023-12-22T12:01:09;6.30;77.70
9057;DHT22;4563;54.756;9.400;2023-12-22T12:03:38;6.30;77.70
9057;DHT22;4563;54.756;9.400;2023-12-22T12:06:31;6.30;77.80
9057;DHT22;4563;54.756;9.400;2023-12-22T12:09:00;6.30;78.00
9057;DHT22;4563;54.756;9.400;2023-12-22T12:14:31;6.30;78.10
9057;DHT22;4563;54.756;9.400;2023-12-22T12:17:05;6.20;77.90
9057;DHT22;4563;54.756;9.400;2023-12-22T12:19:34;6.20;77.90
9057;DHT22;4563;54.756;9.400;2023-12-22T12:22:01;6.20;77.90
9057;DHT22;4563;54.756;9.400;2023-12-22T12:24:28;6.20;77.80
9057;DHT22;4563;54.756;9.400;2023-12-22T12:26:54;6.20;77.90
9057;DHT22;4563;54.756;9.400;2023-12-22T12:29:22;6.20;78.00
9057;DHT22;4563;54.756;9.400;2023-12-22T12:31:49;6.20;78.10
9057;DHT22;4563;54.756;9.400;2023-12-22T12:34:17;6.20;77.80
9057;DHT22;4563;54.756;9.400;2023-12-22T12:36:46;6.20;77.80
9057;DHT22;4563;54.756;9.400;2023-12-22T12:39:14;6.20;77.80
9057;DHT22;4563;54.756;9.400;2023-12-22T12:41:42;6.20;77.80
9057;DHT22;4563;54.756;9.400;2023-12-22T12:44:10;6.20;77.90
9057;DHT22;4563;54.756;9.400;2023-12-22T12:46:38;6.20;77.90
9057;DHT22;4563;54.756;9.400;2023-12-22T12:49:06;6.20;77.90
9057;DHT22;4563;54.756;9.400;2023-12-22T12:51:38;6.20;77.80
9057;DHT22;4563;54.756;9.400;2023-12-22T12:54:05;6.20;77.90
9057;DHT22;4563;54.756;9.400;2023-12-22T12:56:37;6.20;77.80
9057;DHT22;4563;54.756;9.400;2023-12-22T12:59:07;6.20;77.90
9057;DHT22;4563;54.756;9.400;2023-12-22T13:01:38;6.20;78.00
9057;DHT22;4563;54.756;9.400;2023-12-22T13:04:05;6.20;78.00
9057;DHT22;4563;54.756;9.400;2023-12-22T13:06:32;6.20;77.90
9057;DHT22;4563;54.756;9.400;2023-12-22T13:09:01;6.20;78.00
9057;DHT22;4563;54.756;9.400;2023-12-22T13:11:29;6.20;77.80
9057;DHT22;4563;54.756;9.400;2023-12-22T13:13:57;6.20;77.70
9057;DHT22;4563;54.756;9.400;2023-12-22T13:16:25;6.20;77.80
9057;DHT22;4563;54.756;9.400;2023-12-22T13:18:55;6.20;77.70
9057;DHT22;4563;54.756;9.400;2023-12-22T13:21:23;6.20;77.80
9057;DHT22;4563;54.756;9.400;2023-12-22T13:24:09;6.20;77.80
9057;DHT22;4563;54.756;9.400;2023-12-22T13:26:37;6.20;77.90
9057;DHT22;4563;54.756;9.400;2023-12-22T13:29:04;6.20;77.70
9057;DHT22;4563;54.756;9.400;2023-12-22T13:31:31;6.20;77.60
9057;DHT22;4563;54.756;9.400;2023-12-22T13:33:58;6.20;77.50
9057;DHT22;4563;54.756;9.400;2023-12-22T13:36:26;6.20;77.60
9057;DHT22;4563;54.756;9.400;2023-12-22T13:38:53;6.20;77.50
9057;DHT22;4563;54.756;9.400;2023-12-22T13:41:21;6.20;77.50
9057;DHT22;4563;54.756;9.400;2023-12-22T13:43:49;6.20;77.50
9057;DHT22;4563;54.756;9.400;2023-12-22T13:46:16;6.20;77.60
9057;DHT22;4563;54.756;9.400;2023-12-22T13:48:44;6.20;77.70
9057;DHT22;4563;54.756;9.400;2023-12-22T13:51:11;6.20;77.60
9057;DHT22;4563;54.756;9.400;2023-12-22T13:53:47;6.20;77.60
9057;DHT22;4563;54.756;9.400;2023-12-22T13:56:14;6.20;77.60
9057;DHT22;4563;54.756;9.400;2023-12-22T13:58:45;6.20;77.60
9057;DHT22;4563;54.756;9.400;2023-12-22T14:01:13;6.20;77.70
9057;DHT22;4563;54.756;9.400;2023-12-22T14:03:41;6.10;77.70
9057;DHT22;4563;54.756;9.400;2023-12-22T14:06:08;6.10;77.60
9057;DHT22;4563;54.756;9.400;2023-12-22T14:08:35;6.10;77.70
9057;DHT22;4563;54.756;9.400;2023-12-22T14:11:02;6.10;77.60
9057;DHT22;4563;54.756;9.400;2023-12-22T14:13:29;6.10;77.70
9057;DHT22;4563;54.756;9.400;2023-12-22T14:15:58;6.10;77.60
9057;DHT22;4563;54.756;9.400;2023-12-22T14:18:25;6.10;77.60
9057;DHT22;4563;54.756;9.400;2023-12-22T14:20:52;6.10;77.70
9057;DHT22;4563;54.756;9.400;2023-12-22T14:23:18;6.00;77.60
9057;DHT22;4563;54.756;9.400;2023-12-22T14:25:45;6.00;77.60
9057;DHT22;4563;54.756;9.400;2023-12-22T14:28:12;6.00;77.60
9057;DHT22;4563;54.756;9.400;2023-12-22T14:30:39;6.00;77.50
9057;DHT22;4563;54.756;9.400;2023-12-22T14:33:07;6.00;77.60
9057;DHT22;4563;54.756;9.400;2023-12-22T14:35:35;6.00;77.60
9057;DHT22;4563;54.756;9.400;2023-12-22T14:38:02;6.00;77.70
9057;DHT22;4563;54.756;9.400;2023-12-22T14:40:29;6.00;77.70
9057;DHT22;4563;54.756;9.400;2023-12-22T14:42:56;6.00;77.70
9057;DHT22;4563;54.756;9.400;2023-12-22T14:45:24;5.90;77.70
9057;DHT22;4563;54.756;9.400;2023-12-22T14:47:51;5.90;77.80
9057;DHT22;4563;54.756;9.400;2023-12-22T14:50:20;5.90;77.90
9057;DHT22;4563;54.756;9.400;2023-12-22T14:52:50;5.90;77.80
9057;DHT22;4563;54.756;9.400;2023-12-22T14:55:17;5.90;77.80
9057;DHT22;4563;54.756;9.400;2023-12-22T14:57:44;5.90;77.80
9057;DHT22;4563;54.756;9.400;2023-12-22T15:00:11;5.90;77.80
9057;DHT22;4563;54.756;9.400;2023-12-22T15:02:38;5.90;77.80
9057;DHT22;4563;54.756;9.400;2023-12-22T15:05:06;5.90;77.80
9057;DHT22;4563;54.756;9.400;2023-12-22T15:07:34;5.90;77.90
9057;DHT22;4563;54.756;9.400;2023-12-22T15:10:01;5.80;77.70
9057;DHT22;4563;54.756;9.400;2023-12-22T15:12:31;5.80;78.50
9057;DHT22;4563;54.756;9.400;2023-12-22T15:15:02;5.90;77.90
9057;DHT22;4563;54.756;9.400;2023-12-22T15:17:29;5.90;77.90
9057;DHT22;4563;54.756;9.400;2023-12-22T15:19:56;5.80;77.80
9057;DHT22;4563;54.756;9.400;2023-12-22T15:22:23;5.80;77.80
9057;DHT22;4563;54.756;9.400;2023-12-22T15:24:51;5.80;77.90
9057;DHT22;4563;54.756;9.400;2023-12-22T15:27:18;5.80;77.90
9057;DHT22;4563;54.756;9.400;2023-12-22T15:29:45;5.80;77.90
9057;DHT22;4563;54.756;9.400;2023-12-22T15:32:15;5.80;77.90
9057;DHT22;4563;54.756;9.400;2023-12-22T15:34:42;5.80;77.90
9057;DHT22;4563;54.756;9.400;2023-12-22T15:37:09;5.70;77.80
9057;DHT22;4563;54.756;9.400;2023-12-22T15:39:36;5.70;77.80
9057;DHT22;4563;54.756;9.400;2023-12-22T15:42:04;5.70;77.80
9057;DHT22;4563;54.756;9.400;2023-12-22T15:44:31;5.70;77.80
9057;DHT22;4563;54.756;9.400;2023-12-22T15:46:58;5.70;77.80
9057;DHT22;4563;54.756;9.400;2023-12-22T15:49:25;5.70;77.80
9057;DHT22;4563;54.756;9.400;2023-12-22T15:51:53;5.70;77.80
9057;DHT22;4563;54.756;9.400;2023-12-22T15:54:21;5.70;77.90
9057;DHT22;4563;54.756;9.400;2023-12-22T15:56:48;5.70;77.80
9057;DHT22;4563;54.756;9.400;2023-12-22T15:59:16;5.70;77.90
9057;DHT22;4563;54.756;9.400;2023-12-22T16:01:43;5.60;77.70
9057;DHT22;4563;54.756;9.400;2023-12-22T16:04:10;5.60;77.70
9057;DHT22;4563;54.756;9.400;2023-12-22T16:06:37;5.70;77.80
9057;DHT22;4563;54.756;9.400;2023-12-22T16:09:04;5.60;77.70
9057;DHT22;4563;54.756;9.400;2023-12-22T16:11:31;5.60;77.80
9057;DHT22;4563;54.756;9.400;2023-12-22T16:13:58;5.60;77.80
9057;DHT22;4563;54.756;9.400;2023-12-22T16:16:26;5.60;77.80
9057;DHT22;4563;54.756;9.400;2023-12-22T16:18:53;5.60;77.90
9057;DHT22;4563;54.756;9.400;2023-12-22T16:21:19;5.60;77.80
9057;DHT22;4563;54.756;9.400;2023-12-22T16:23:46;5.60;77.90
9057;DHT22;4563;54.756;9.400;2023-12-22T16:26:21;5.60;77.90